FADN/DUR METAR and TAF weather

Enter ICAO airport designator
Station Type Date Time Source
FADN METAR 2010/05/05 08:00 UTC NOAA

FADN 050800Z AUTO 20008KT //// // ////// 26/20 Q1011


Station Type Date Time Source
FADN Decoded METAR 2010/05/05 08:00 UTC NOAA

Durban, Durban International Airport, South Africa (FADN) 29-58S 030-57E 0M
May 05, 2010 - 04:00 AM EDT / 2010.05.05 0800 UTC
Wind: from the SSW (200 degrees) at 9 MPH (8 KT):0
Temperature: 78 F (26 C)
Dew Point: 68 F (20 C)
Relative Humidity: 69%
Pressure (altimeter): 29.85 in. Hg (1011 hPa)
ob: FADN 050800Z AUTO 20008KT //// // ////// 26/20 Q1011
cycle: 8

Station Type Date Time Source
FADN TAF 2017/05/17 18:51 UTC NOAA

TAF TAF FADN 171600Z 1718/1824 18015KT 9999 SCT025
BECMG 1718/1720 26005KT
BECMG 1807/1809 19015KT
BECMG 1817/1819 26003KT TX24/1812ZTN14/1804Z


Example: see airport list